sensor_id;sensor_type;location;lat;lon;timestamp;temperature;humidity
36372;DHT22;22398;51.346;12.372;2022-07-29T00:01:15;17.40;66.60
36372;DHT22;22398;51.346;12.372;2022-07-29T00:06:21;17.40;66.80
36372;DHT22;22398;51.346;12.372;2022-07-29T00:11:24;17.30;66.90
36372;DHT22;22398;51.346;12.372;2022-07-29T00:16:27;17.30;67.10
36372;DHT22;22398;51.346;12.372;2022-07-29T00:21:32;17.30;67.20
36372;DHT22;22398;51.346;12.372;2022-07-29T00:26:36;17.30;67.30
36372;DHT22;22398;51.346;12.372;2022-07-29T00:31:39;17.30;67.40
36372;DHT22;22398;51.346;12.372;2022-07-29T00:36:44;17.20;67.50
36372;DHT22;22398;51.346;12.372;2022-07-29T00:41:47;17.20;67.70
36372;DHT22;22398;51.346;12.372;2022-07-29T00:46:51;17.20;67.80
36372;DHT22;22398;51.346;12.372;2022-07-29T00:51:55;17.20;68.00
36372;DHT22;22398;51.346;12.372;2022-07-29T00:56:59;17.20;68.10
36372;DHT22;22398;51.346;12.372;2022-07-29T01:02:07;17.20;68.20
36372;DHT22;22398;51.346;12.372;2022-07-29T01:07:12;17.10;68.20
36372;DHT22;22398;51.346;12.372;2022-07-29T01:12:16;17.10;68.40
36372;DHT22;22398;51.346;12.372;2022-07-29T01:17:21;17.10;68.60
36372;DHT22;22398;51.346;12.372;2022-07-29T01:22:37;17.00;68.60
36372;DHT22;22398;51.346;12.372;2022-07-29T01:27:51;17.00;68.80
36372;DHT22;22398;51.346;12.372;2022-07-29T01:33:00;16.90;69.00
36372;DHT22;22398;51.346;12.372;2022-07-29T01:38:05;16.90;69.20
36372;DHT22;22398;51.346;12.372;2022-07-29T01:43:11;16.90;69.40
36372;DHT22;22398;51.346;12.372;2022-07-29T01:48:17;16.90;69.60
36372;DHT22;22398;51.346;12.372;2022-07-29T01:53:23;16.90;69.70
36372;DHT22;22398;51.346;12.372;2022-07-29T01:58:39;16.90;69.80
36372;DHT22;22398;51.346;12.372;2022-07-29T02:03:45;16.90;69.80
36372;DHT22;22398;51.346;12.372;2022-07-29T02:08:49;16.90;69.90
36372;DHT22;22398;51.346;12.372;2022-07-29T02:13:53;16.90;70.00
36372;DHT22;22398;51.346;12.372;2022-07-29T02:19:00;16.90;70.60
36372;DHT22;22398;51.346;12.372;2022-07-29T02:24:04;16.80;70.30
36372;DHT22;22398;51.346;12.372;2022-07-29T02:29:07;16.80;70.40
36372;DHT22;22398;51.346;12.372;2022-07-29T02:34:13;16.80;70.60
36372;DHT22;22398;51.346;12.372;2022-07-29T02:39:21;16.80;70.70
36372;DHT22;22398;51.346;12.372;2022-07-29T02:44:25;16.80;70.80
36372;DHT22;22398;51.346;12.372;2022-07-29T02:49:37;16.80;70.80
36372;DHT22;22398;51.346;12.372;2022-07-29T02:54:42;16.70;71.00
36372;DHT22;22398;51.346;12.372;2022-07-29T02:59:48;16.60;71.00
36372;DHT22;22398;51.346;12.372;2022-07-29T03:04:53;16.70;71.30
36372;DHT22;22398;51.346;12.372;2022-07-29T03:09:59;16.60;71.30
36372;DHT22;22398;51.346;12.372;2022-07-29T03:15:03;16.60;71.50
36372;DHT22;22398;51.346;12.372;2022-07-29T03:20:09;16.60;71.30
36372;DHT22;22398;51.346;12.372;2022-07-29T03:25:13;16.60;71.80
36372;DHT22;22398;51.346;12.372;2022-07-29T03:30:17;16.60;71.60
36372;DHT22;22398;51.346;12.372;2022-07-29T03:35:24;16.60;72.00
36372;DHT22;22398;51.346;12.372;2022-07-29T03:40:30;16.50;71.80
36372;DHT22;22398;51.346;12.372;2022-07-29T03:45:34;16.40;72.20
36372;DHT22;22398;51.346;12.372;2022-07-29T03:50:40;16.30;72.20
36372;DHT22;22398;51.346;12.372;2022-07-29T03:55:44;16.30;72.70
36372;DHT22;22398;51.346;12.372;2022-07-29T04:00:48;16.20;72.70
36372;DHT22;22398;51.346;12.372;2022-07-29T04:06:00;16.20;73.10
36372;DHT22;22398;51.346;12.372;2022-07-29T04:11:03;16.30;73.00
36372;DHT22;22398;51.346;12.372;2022-07-29T04:16:07;16.30;73.00
36372;DHT22;22398;51.346;12.372;2022-07-29T04:21:12;16.40;73.00
36372;DHT22;22398;51.346;12.372;2022-07-29T04:26:15;16.50;73.40
36372;DHT22;22398;51.346;12.372;2022-07-29T04:31:19;16.60;73.00
36372;DHT22;22398;51.346;12.372;2022-07-29T04:36:28;16.70;73.30
36372;DHT22;22398;51.346;12.372;2022-07-29T04:41:32;16.80;72.80
36372;DHT22;22398;51.346;12.372;2022-07-29T04:46:35;16.80;73.10
36372;DHT22;22398;51.346;12.372;2022-07-29T04:51:41;16.90;72.60
36372;DHT22;22398;51.346;12.372;2022-07-29T04:56:44;16.90;73.00
36372;DHT22;22398;51.346;12.372;2022-07-29T05:01:48;17.00;72.40
36372;DHT22;22398;51.346;12.372;2022-07-29T05:06:53;17.10;72.70
36372;DHT22;22398;51.346;12.372;2022-07-29T05:11:57;17.30;72.20
36372;DHT22;22398;51.346;12.372;2022-07-29T05:17:00;17.40;72.40
36372;DHT22;22398;51.346;12.372;2022-07-29T05:22:05;17.60;71.70
36372;DHT22;22398;51.346;12.372;2022-07-29T05:27:10;17.80;71.80
36372;DHT22;22398;51.346;12.372;2022-07-29T05:32:13;18.10;71.00
36372;DHT22;22398;51.346;12.372;2022-07-29T05:37:18;18.30;70.90
36372;DHT22;22398;51.346;12.372;2022-07-29T05:42:21;18.60;70.50
36372;DHT22;22398;51.346;12.372;2022-07-29T05:47:25;18.80;69.90
36372;DHT22;22398;51.346;12.372;2022-07-29T05:52:30;18.80;69.30
36372;DHT22;22398;51.346;12.372;2022-07-29T05:57:34;18.90;69.10
36372;DHT22;22398;51.346;12.372;2022-07-29T06:02:37;19.00;68.60
36372;DHT22;22398;51.346;12.372;2022-07-29T06:07:42;19.30;68.70
36372;DHT22;22398;51.346;12.372;2022-07-29T06:12:52;19.50;68.20
36372;DHT22;22398;51.346;12.372;2022-07-29T06:17:56;19.50;67.70
36372;DHT22;22398;51.346;12.372;2022-07-29T06:23:04;19.50;67.70
36372;DHT22;22398;51.346;12.372;2022-07-29T06:28:07;19.50;67.10
36372;DHT22;22398;51.346;12.372;2022-07-29T06:33:15;19.50;67.50
36372;DHT22;22398;51.346;12.372;2022-07-29T06:38:20;19.60;67.40
36372;DHT22;22398;51.346;12.372;2022-07-29T06:43:33;19.70;67.30
36372;DHT22;22398;51.346;12.372;2022-07-29T06:48:52;20.00;67.10
36372;DHT22;22398;51.346;12.372;2022-07-29T06:53:57;20.40;66.40
36372;DHT22;22398;51.346;12.372;2022-07-29T06:59:04;20.60;66.00
36372;DHT22;22398;51.346;12.372;2022-07-29T07:04:08;20.80;65.30
36372;DHT22;22398;51.346;12.372;2022-07-29T07:09:13;21.00;65.10
36372;DHT22;22398;51.346;12.372;2022-07-29T07:14:17;21.30;64.40
36372;DHT22;22398;51.346;12.372;2022-07-29T07:19:21;21.80;63.90
36372;DHT22;22398;51.346;12.372;2022-07-29T07:24:26;21.90;63.20
36372;DHT22;22398;51.346;12.372;2022-07-29T07:29:30;21.70;63.00
36372;DHT22;22398;51.346;12.372;2022-07-29T07:34:33;21.50;63.10
36372;DHT22;22398;51.346;12.372;2022-07-29T07:39:38;21.30;63.20
36372;DHT22;22398;51.346;12.372;2022-07-29T07:44:41;21.30;63.40
36372;DHT22;22398;51.346;12.372;2022-07-29T07:50:05;21.40;63.30
36372;DHT22;22398;51.346;12.372;2022-07-29T07:55:10;21.60;63.10
36372;DHT22;22398;51.346;12.372;2022-07-29T08:00:14;21.80;62.90
36372;DHT22;22398;51.346;12.372;2022-07-29T08:05:18;21.80;62.60
36372;DHT22;22398;51.346;12.372;2022-07-29T08:10:22;22.20;62.50
36372;DHT22;22398;51.346;12.372;2022-07-29T08:15:40;22.40;62.20
36372;DHT22;22398;51.346;12.372;2022-07-29T08:20:44;22.70;61.60
36372;DHT22;22398;51.346;12.372;2022-07-29T08:25:49;23.10;61.30
36372;DHT22;22398;51.346;12.372;2022-07-29T08:30:55;23.50;60.80
36372;DHT22;22398;51.346;12.372;2022-07-29T08:35:59;23.80;60.20
36372;DHT22;22398;51.346;12.372;2022-07-29T08:41:04;24.10;59.60
36372;DHT22;22398;51.346;12.372;2022-07-29T08:46:07;24.50;59.20
36372;DHT22;22398;51.346;12.372;2022-07-29T08:51:12;24.70;58.40
36372;DHT22;22398;51.346;12.372;2022-07-29T08:56:18;25.10;57.90
36372;DHT22;22398;51.346;12.372;2022-07-29T09:01:23;25.60;57.60
36372;DHT22;22398;51.346;12.372;2022-07-29T09:06:39;26.30;56.60
36372;DHT22;22398;51.346;12.372;2022-07-29T09:11:46;26.70;55.80
36372;DHT22;22398;51.346;12.372;2022-07-29T09:16:51;27.10;54.90
36372;DHT22;22398;51.346;12.372;2022-07-29T09:21:56;27.40;54.00
36372;DHT22;22398;51.346;12.372;2022-07-29T09:27:09;27.60;53.50
36372;DHT22;22398;51.346;12.372;2022-07-29T09:32:13;27.80;52.80
36372;DHT22;22398;51.346;12.372;2022-07-29T09:37:25;27.90;52.40
36372;DHT22;22398;51.346;12.372;2022-07-29T09:42:30;27.90;52.00
36372;DHT22;22398;51.346;12.372;2022-07-29T09:47:42;27.70;51.80
36372;DHT22;22398;51.346;12.372;2022-07-29T09:52:49;27.60;51.50
36372;DHT22;22398;51.346;12.372;2022-07-29T09:57:54;27.60;51.40
36372;DHT22;22398;51.346;12.372;2022-07-29T10:03:17;27.60;51.30
36372;DHT22;22398;51.346;12.372;2022-07-29T10:08:24;27.80;51.10
36372;DHT22;22398;51.346;12.372;2022-07-29T10:13:29;28.20;51.00
36372;DHT22;22398;51.346;12.372;2022-07-29T10:18:33;28.20;50.50
36372;DHT22;22398;51.346;12.372;2022-07-29T10:23:36;28.30;50.30
36372;DHT22;22398;51.346;12.372;2022-07-29T10:28:49;28.20;49.90
36372;DHT22;22398;51.346;12.372;2022-07-29T10:33:55;28.20;49.60
36372;DHT22;22398;51.346;12.372;2022-07-29T10:39:05;28.10;49.20
36372;DHT22;22398;51.346;12.372;2022-07-29T10:44:18;28.30;48.90
36372;DHT22;22398;51.346;12.372;2022-07-29T10:49:24;28.40;49.20
36372;DHT22;22398;51.346;12.372;2022-07-29T10:54:41;28.40;48.50
36372;DHT22;22398;51.346;12.372;2022-07-29T10:59:49;28.40;48.20
36372;DHT22;22398;51.346;12.372;2022-07-29T11:05:00;28.40;48.10
36372;DHT22;22398;51.346;12.372;2022-07-29T11:10:23;28.50;47.80
36372;DHT22;22398;51.346;12.372;2022-07-29T11:15:51;28.60;47.20
36372;DHT22;22398;51.346;12.372;2022-07-29T11:20:55;28.80;46.90
36372;DHT22;22398;51.346;12.372;2022-07-29T11:26:18;28.80;47.00
36372;DHT22;22398;51.346;12.372;2022-07-29T11:31:34;28.60;46.50
36372;DHT22;22398;51.346;12.372;2022-07-29T11:36:39;28.50;46.50
36372;DHT22;22398;51.346;12.372;2022-07-29T11:47:35;29.00;46.50
36372;DHT22;22398;51.346;12.372;2022-07-29T11:52:41;29.20;46.00
36372;DHT22;22398;51.346;12.372;2022-07-29T11:57:52;29.20;45.90
36372;DHT22;22398;51.346;12.372;2022-07-29T12:03:07;29.10;45.80
36372;DHT22;22398;51.346;12.372;2022-07-29T12:08:13;29.20;45.70
36372;DHT22;22398;51.346;12.372;2022-07-29T12:13:17;29.20;45.60
36372;DHT22;22398;51.346;12.372;2022-07-29T12:18:24;29.10;45.60
36372;DHT22;22398;51.346;12.372;2022-07-29T12:23:29;29.20;46.10
36372;DHT22;22398;51.346;12.372;2022-07-29T12:28:36;29.30;45.50
36372;DHT22;22398;51.346;12.372;2022-07-29T12:33:52;27.50;44.10
36372;DHT22;22398;51.346;12.372;2022-07-29T12:38:59;29.70;45.60
36372;DHT22;22398;51.346;12.372;2022-07-29T12:44:02;29.90;45.40
36372;DHT22;22398;51.346;12.372;2022-07-29T12:49:07;29.40;45.30
36372;DHT22;22398;51.346;12.372;2022-07-29T12:54:12;29.40;45.60
36372;DHT22;22398;51.346;12.372;2022-07-29T12:59:17;29.70;45.60
36372;DHT22;22398;51.346;12.372;2022-07-29T13:04:25;30.10;45.50
36372;DHT22;22398;51.346;12.372;2022-07-29T13:09:35;30.20;45.30
36372;DHT22;22398;51.346;12.372;2022-07-29T13:14:40;30.40;45.20
36372;DHT22;22398;51.346;12.372;2022-07-29T13:19:45;30.80;45.00
36372;DHT22;22398;51.346;12.372;2022-07-29T13:24:50;31.00;44.60
36372;DHT22;22398;51.346;12.372;2022-07-29T13:29:54;31.40;44.40
36372;DHT22;22398;51.346;12.372;2022-07-29T13:35:02;31.80;44.30
36372;DHT22;22398;51.346;12.372;2022-07-29T13:40:07;32.10;43.70
36372;DHT22;22398;51.346;12.372;2022-07-29T13:45:11;32.40;43.20
36372;DHT22;22398;51.346;12.372;2022-07-29T13:50:16;32.20;42.80
36372;DHT22;22398;51.346;12.372;2022-07-29T13:55:19;32.50;43.00
36372;DHT22;22398;51.346;12.372;2022-07-29T14:00:23;32.30;42.80
36372;DHT22;22398;51.346;12.372;2022-07-29T14:05:28;31.90;42.80
36372;DHT22;22398;51.346;12.372;2022-07-29T14:10:31;31.70;42.90
36372;DHT22;22398;51.346;12.372;2022-07-29T14:15:34;31.50;43.00
36372;DHT22;22398;51.346;12.372;2022-07-29T14:20:41;31.40;43.10
36372;DHT22;22398;51.346;12.372;2022-07-29T14:25:45;31.20;43.00
36372;DHT22;22398;51.346;12.372;2022-07-29T14:30:50;31.10;43.20
36372;DHT22;22398;51.346;12.372;2022-07-29T14:35:55;30.90;43.30
36372;DHT22;22398;51.346;12.372;2022-07-29T14:41:02;30.60;43.20
36372;DHT22;22398;51.346;12.372;2022-07-29T14:46:05;30.50;43.50
36372;DHT22;22398;51.346;12.372;2022-07-29T14:51:11;30.60;43.60
36372;DHT22;22398;51.346;12.372;2022-07-29T14:56:14;30.50;43.50
36372;DHT22;22398;51.346;12.372;2022-07-29T15:01:37;30.50;43.60
36372;DHT22;22398;51.346;12.372;2022-07-29T15:06:43;30.40;43.50
36372;DHT22;22398;51.346;12.372;2022-07-29T15:11:46;30.50;43.70
36372;DHT22;22398;51.346;12.372;2022-07-29T15:16:50;30.50;43.90
36372;DHT22;22398;51.346;12.372;2022-07-29T15:21:55;30.30;43.70
36372;DHT22;22398;51.346;12.372;2022-07-29T15:27:00;30.20;43.70
36372;DHT22;22398;51.346;12.372;2022-07-29T15:32:04;30.10;43.90
36372;DHT22;22398;51.346;12.372;2022-07-29T15:37:09;30.20;44.00
36372;DHT22;22398;51.346;12.372;2022-07-29T15:42:13;30.40;44.00
36372;DHT22;22398;51.346;12.372;2022-07-29T15:47:18;30.30;43.90
36372;DHT22;22398;51.346;12.372;2022-07-29T15:52:23;30.50;44.00
36372;DHT22;22398;51.346;12.372;2022-07-29T15:57:27;30.00;44.60
36372;DHT22;22398;51.346;12.372;2022-07-29T16:02:30;28.90;46.60
36372;DHT22;22398;51.346;12.372;2022-07-29T16:07:35;28.10;48.40
36372;DHT22;22398;51.346;12.372;2022-07-29T16:12:39;27.60;49.80
36372;DHT22;22398;51.346;12.372;2022-07-29T16:17:42;27.10;51.10
36372;DHT22;22398;51.346;12.372;2022-07-29T16:22:47;26.80;52.60
36372;DHT22;22398;51.346;12.372;2022-07-29T16:27:51;26.60;52.90
36372;DHT22;22398;51.346;12.372;2022-07-29T16:33:00;26.50;53.80
36372;DHT22;22398;51.346;12.372;2022-07-29T16:38:10;26.30;54.60
36372;DHT22;22398;51.346;12.372;2022-07-29T16:43:13;26.00;55.50
36372;DHT22;22398;51.346;12.372;2022-07-29T16:48:17;26.10;56.10
36372;DHT22;22398;51.346;12.372;2022-07-29T16:53:21;26.10;56.50
36372;DHT22;22398;51.346;12.372;2022-07-29T16:58:30;26.20;56.80
36372;DHT22;22398;51.346;12.372;2022-07-29T17:03:33;26.30;57.00
36372;DHT22;22398;51.346;12.372;2022-07-29T17:08:38;26.50;57.10
36372;DHT22;22398;51.346;12.372;2022-07-29T17:13:42;26.80;56.90
36372;DHT22;22398;51.346;12.372;2022-07-29T17:18:45;27.10;56.70
36372;DHT22;22398;51.346;12.372;2022-07-29T17:23:50;27.20;56.30
36372;DHT22;22398;51.346;12.372;2022-07-29T17:28:53;27.20;56.20
36372;DHT22;22398;51.346;12.372;2022-07-29T17:33:56;27.00;56.00
36372;DHT22;22398;51.346;12.372;2022-07-29T17:39:03;26.90;56.00
36372;DHT22;22398;51.346;12.372;2022-07-29T17:44:07;26.70;56.10
36372;DHT22;22398;51.346;12.372;2022-07-29T17:49:11;26.40;56.40
36372;DHT22;22398;51.346;12.372;2022-07-29T17:54:16;26.40;56.80
36372;DHT22;22398;51.346;12.372;2022-07-29T17:59:19;26.20;56.90
36372;DHT22;22398;51.346;12.372;2022-07-29T18:04:22;26.00;57.20
36372;DHT22;22398;51.346;12.372;2022-07-29T18:09:27;25.90;57.40
36372;DHT22;22398;51.346;12.372;2022-07-29T18:14:31;25.70;57.40
36372;DHT22;22398;51.346;12.372;2022-07-29T18:19:34;25.50;57.30
36372;DHT22;22398;51.346;12.372;2022-07-29T18:24:39;25.40;57.40
36372;DHT22;22398;51.346;12.372;2022-07-29T18:29:48;25.30;57.40
36372;DHT22;22398;51.346;12.372;2022-07-29T18:34:52;25.20;57.80
36372;DHT22;22398;51.346;12.372;2022-07-29T18:39:59;25.20;58.20
36372;DHT22;22398;51.346;12.372;2022-07-29T18:45:14;25.00;58.90
36372;DHT22;22398;51.346;12.372;2022-07-29T18:50:23;24.80;59.30
36372;DHT22;22398;51.346;12.372;2022-07-29T18:55:31;24.80;59.80
36372;DHT22;22398;51.346;12.372;2022-07-29T19:00:35;24.60;59.60
36372;DHT22;22398;51.346;12.372;2022-07-29T19:05:38;24.50;60.10
36372;DHT22;22398;51.346;12.372;2022-07-29T19:10:43;24.30;60.20
36372;DHT22;22398;51.346;12.372;2022-07-29T19:15:47;24.30;60.50
36372;DHT22;22398;51.346;12.372;2022-07-29T19:20:51;24.10;60.80
36372;DHT22;22398;51.346;12.372;2022-07-29T19:25:56;24.10;61.10
36372;DHT22;22398;51.346;12.372;2022-07-29T19:31:01;24.00;61.40
36372;DHT22;22398;51.346;12.372;2022-07-29T19:36:04;23.90;61.60
36372;DHT22;22398;51.346;12.372;2022-07-29T19:41:09;23.90;61.80
36372;DHT22;22398;51.346;12.372;2022-07-29T19:46:14;23.80;62.00
36372;DHT22;22398;51.346;12.372;2022-07-29T19:51:18;23.90;62.20
36372;DHT22;22398;51.346;12.372;2022-07-29T19:56:22;23.80;62.30
36372;DHT22;22398;51.346;12.372;2022-07-29T20:01:31;23.80;62.70
36372;DHT22;22398;51.346;12.372;2022-07-29T20:06:34;23.70;63.10
36372;DHT22;22398;51.346;12.372;2022-07-29T20:11:39;23.60;63.50
36372;DHT22;22398;51.346;12.372;2022-07-29T20:16:42;23.60;64.00
36372;DHT22;22398;51.346;12.372;2022-07-29T20:21:46;23.50;64.00
36372;DHT22;22398;51.346;12.372;2022-07-29T20:26:51;23.50;64.00
36372;DHT22;22398;51.346;12.372;2022-07-29T20:31:55;23.50;64.60
36372;DHT22;22398;51.346;12.372;2022-07-29T20:36:58;23.50;64.70
36372;DHT22;22398;51.346;12.372;2022-07-29T20:42:04;23.50;64.80
36372;DHT22;22398;51.346;12.372;2022-07-29T20:47:08;23.50;64.90
36372;DHT22;22398;51.346;12.372;2022-07-29T20:52:12;23.50;64.80
36372;DHT22;22398;51.346;12.372;2022-07-29T20:57:16;23.50;65.20
36372;DHT22;22398;51.346;12.372;2022-07-29T21:02:39;23.50;65.80
36372;DHT22;22398;51.346;12.372;2022-07-29T21:07:43;23.40;66.50
36372;DHT22;22398;51.346;12.372;2022-07-29T21:12:48;23.30;68.10
36372;DHT22;22398;51.346;12.372;2022-07-29T21:17:51;22.50;72.60
36372;DHT22;22398;51.346;12.372;2022-07-29T21:23:01;21.00;86.90
36372;DHT22;22398;51.346;12.372;2022-07-29T21:28:06;20.80;90.70
36372;DHT22;22398;51.346;12.372;2022-07-29T21:33:27;20.50;94.30
36372;DHT22;22398;51.346;12.372;2022-07-29T21:38:31;20.40;95.40
36372;DHT22;22398;51.346;12.372;2022-07-29T21:43:36;20.20;96.10
36372;DHT22;22398;51.346;12.372;2022-07-29T21:48:42;20.10;97.10
36372;DHT22;22398;51.346;12.372;2022-07-29T21:53:46;20.20;97.80
36372;DHT22;22398;51.346;12.372;2022-07-29T21:58:51;20.10;98.10
36372;DHT22;22398;51.346;12.372;2022-07-29T22:03:54;19.40;99.90
36372;DHT22;22398;51.346;12.372;2022-07-29T22:08:57;19.20;99.90
36372;DHT22;22398;51.346;12.372;2022-07-29T22:14:03;18.90;99.90
36372;DHT22;22398;51.346;12.372;2022-07-29T22:19:06;18.60;99.90
36372;DHT22;22398;51.346;12.372;2022-07-29T22:24:10;18.40;99.90
36372;DHT22;22398;51.346;12.372;2022-07-29T22:29:15;18.30;99.90
36372;DHT22;22398;51.346;12.372;2022-07-29T22:34:19;18.30;99.90
36372;DHT22;22398;51.346;12.372;2022-07-29T22:39:23;18.30;99.90
36372;DHT22;22398;51.346;12.372;2022-07-29T22:44:28;18.30;99.90
36372;DHT22;22398;51.346;12.372;2022-07-29T22:49:31;18.40;99.90
36372;DHT22;22398;51.346;12.372;2022-07-29T22:54:35;18.40;99.90
36372;DHT22;22398;51.346;12.372;2022-07-29T22:59:40;18.50;99.90
36372;DHT22;22398;51.346;12.372;2022-07-29T23:04:43;18.40;99.90
36372;DHT22;22398;51.346;12.372;2022-07-29T23:09:47;18.40;99.90
36372;DHT22;22398;51.346;12.372;2022-07-29T23:14:51;18.30;99.90
36372;DHT22;22398;51.346;12.372;2022-07-29T23:19:55;18.40;99.90
36372;DHT22;22398;51.346;12.372;2022-07-29T23:24:58;18.30;99.90
36372;DHT22;22398;51.346;12.372;2022-07-29T23:30:03;18.30;99.90
36372;DHT22;22398;51.346;12.372;2022-07-29T23:35:08;18.30;99.90
36372;DHT22;22398;51.346;12.372;2022-07-29T23:40:12;18.30;99.90
36372;DHT22;22398;51.346;12.372;2022-07-29T23:45:17;18.30;99.90
36372;DHT22;22398;51.346;12.372;2022-07-29T23:50:20;18.30;99.90
36372;DHT22;22398;51.346;12.372;2022-07-29T23:55:23;18.30;99.90
